Time;durP1;ratioP1;P1;durP2;ratioP2;P2;SDS_P1;SDS_P2;PMS_P1;PMS_P2;Temp;Humidity;BMP_temperature;BMP_pressure;BME280_temperature;BME280_humidity;BME280_pressure;Samples;Min_cycle;Max_cycle;Signal;HPM_P1;HPM_P2
2021/09/20 00:01:50;;;;;;;11.07;5.65;;;9.00;99.90;;;;;;5007044;28;20133;-68
2021/09/20 00:04:18;;;;;;;5.78;4.68;;;9.00;99.90;;;;;;5007781;28;20145;-63
2021/09/20 00:06:45;;;;;;;9.48;4.60;;;9.00;99.90;;;;;;5007955;28;20128;-67
2021/09/20 00:09:12;;;;;;;7.22;5.15;;;9.10;99.90;;;;;;5008013;28;20077;-67
2021/09/20 00:11:39;;;;;;;7.47;5.45;;;9.10;99.90;;;;;;5006453;28;20106;-62
2021/09/20 00:14:06;;;;;;;5.53;4.75;;;9.10;99.90;;;;;;5007710;28;20107;-64
2021/09/20 00:16:33;;;;;;;7.65;4.30;;;9.10;99.90;;;;;;5007641;28;20046;-63
2021/09/20 00:19:00;;;;;;;8.68;4.95;;;9.10;99.90;;;;;;5007488;28;20111;-67
2021/09/20 00:21:27;;;;;;;8.68;4.13;;;9.10;99.90;;;;;;5007770;28;20535;-65
2021/09/20 00:23:54;;;;;;;7.53;5.20;;;9.10;99.90;;;;;;5006508;28;20128;-66
2021/09/20 00:26:21;;;;;;;6.18;4.13;;;9.10;99.90;;;;;;5007250;28;20076;-63
2021/09/20 00:28:47;;;;;;;5.60;4.78;;;9.20;99.90;;;;;;5007623;28;20132;-67
2021/09/20 00:31:15;;;;;;;7.32;5.40;;;9.20;99.90;;;;;;5007126;28;20092;-67
2021/09/20 00:33:42;;;;;;;5.10;4.40;;;9.20;99.90;;;;;;5005886;28;20046;-65
2021/09/20 00:36:09;;;;;;;10.07;5.40;;;9.20;99.90;;;;;;5007369;28;20196;-64
2021/09/20 00:38:36;;;;;;;7.10;4.70;;;9.20;99.90;;;;;;5006954;28;20053;-62
2021/09/20 00:41:03;;;;;;;4.45;4.05;;;9.30;99.90;;;;;;5007439;28;20536;-65
2021/09/20 00:43:30;;;;;;;8.70;5.45;;;9.30;99.90;;;;;;5005953;28;20062;-66
2021/09/20 00:45:57;;;;;;;7.05;4.85;;;9.30;99.90;;;;;;5007160;28;20065;-72
2021/09/20 00:48:24;;;;;;;6.55;4.43;;;9.20;99.90;;;;;;5007244;28;20054;-64
2021/09/20 00:50:51;;;;;;;5.47;4.78;;;9.20;99.90;;;;;;5007082;28;20072;-68
2021/09/20 00:53:18;;;;;;;9.32;4.72;;;9.20;99.90;;;;;;5007156;28;20111;-69
2021/09/20 00:55:45;;;;;;;5.88;4.47;;;9.20;99.90;;;;;;5006034;28;20140;-68
2021/09/20 00:58:13;;;;;;;4.82;4.18;;;9.20;99.90;;;;;;5007037;28;20104;-69
2021/09/20 01:00:41;;;;;;;4.70;4.15;;;9.20;99.90;;;;;;5007488;28;20046;-69
2021/09/20 01:06:00;;;;;;;6.60;4.93;;;9.20;99.90;;;;;;4960871;28;20131;-82
2021/09/20 01:08:27;;;;;;;5.20;4.03;;;9.20;99.90;;;;;;4877021;28;20053;-82
2021/09/20 01:10:54;;;;;;;5.57;4.50;;;9.20;99.90;;;;;;1023145;28;10002093;-83
2021/09/20 01:13:21;;;;;;;5.72;4.50;;;9.20;99.90;;;;;;4973137;28;20054;-83
2021/09/20 01:15:48;;;;;;;4.05;3.70;;;9.20;99.90;;;;;;4979848;28;20360;-83
2021/09/20 01:18:15;;;;;;;5.72;4.68;;;9.20;99.90;;;;;;4970179;28;20042;-83
2021/09/20 01:20:42;;;;;;;5.70;5.10;;;9.20;99.90;;;;;;4986084;28;20042;-84
2021/09/20 01:23:09;;;;;;;7.32;4.80;;;9.20;99.90;;;;;;4970023;28;20116;-83
2021/09/20 01:25:36;;;;;;;6.03;4.78;;;9.20;99.90;;;;;;4983935;28;20055;-83
2021/09/20 01:28:04;;;;;;;4.50;3.72;;;9.20;99.90;;;;;;4959420;28;20046;-84
2021/09/20 01:30:32;;;;;;;6.68;5.00;;;9.20;99.90;;;;;;4967426;28;20119;-83
2021/09/20 01:32:59;;;;;;;10.93;5.47;;;9.30;99.90;;;;;;4974556;28;20085;-83
2021/09/20 01:35:28;;;;;;;5.80;4.82;;;9.20;99.90;;;;;;4974016;28;20120;-83
2021/09/20 01:37:55;;;;;;;6.63;4.18;;;9.30;99.90;;;;;;4980542;28;20185;-83
2021/09/20 01:40:23;;;;;;;5.95;4.43;;;9.30;99.90;;;;;;4957378;28;20538;-83
2021/09/20 01:42:50;;;;;;;4.97;4.53;;;9.30;99.90;;;;;;4974159;28;20043;-83
2021/09/20 01:45:17;;;;;;;5.63;4.82;;;9.30;99.90;;;;;;4984081;28;20073;-83
2021/09/20 01:47:44;;;;;;;5.13;4.38;;;9.30;99.90;;;;;;4968470;28;20073;-84
2021/09/20 01:50:13;;;;;;;5.80;5.20;;;9.30;99.90;;;;;;4968645;28;20092;-84
2021/09/20 01:52:41;;;;;;;5.07;4.32;;;9.30;99.90;;;;;;4955253;28;20050;-83
2021/09/20 01:55:09;;;;;;;6.75;4.95;;;9.30;99.90;;;;;;4977332;28;20078;-83
2021/09/20 01:57:36;;;;;;;7.60;4.20;;;9.30;99.90;;;;;;4969489;28;20049;-83
2021/09/20 02:00:08;;;;;;;7.57;4.53;;;9.30;99.90;;;;;;4972022;28;20065;-84
2021/09/20 02:02:38;;;;;;;6.70;4.35;;;9.30;99.90;;;;;;4982341;28;20554;-83
2021/09/20 02:05:07;;;;;;;6.20;4.40;;;9.30;99.90;;;;;;4972927;28;20042;-83
2021/09/20 02:07:35;;;;;;;5.50;4.53;;;9.30;99.90;;;;;;4970668;28;20046;-83
2021/09/20 02:10:05;;;;;;;7.38;5.50;;;9.30;99.90;;;;;;5008161;28;20061;-83
2021/09/20 02:12:32;;;;;;;6.30;4.80;;;9.30;99.90;;;;;;5010638;28;20042;-84
2021/09/20 02:14:59;;;;;;;4.75;3.58;;;9.30;99.90;;;;;;5008055;28;20046;-85
2021/09/20 02:17:27;;;;;;;6.97;4.68;;;9.30;99.90;;;;;;5006218;28;20050;-83
2021/09/20 02:19:53;;;;;;;5.10;4.38;;;9.30;99.90;;;;;;4999131;28;20061;-83
2021/09/20 02:22:20;;;;;;;7.00;4.80;;;9.30;99.90;;;;;;5004574;28;20175;-83
2021/09/20 02:24:48;;;;;;;5.90;4.95;;;9.30;99.90;;;;;;5004030;28;20100;-84
2021/09/20 02:27:15;;;;;;;5.68;5.07;;;9.30;99.90;;;;;;5007472;28;20100;-82
2021/09/20 02:29:42;;;;;;;9.35;5.25;;;9.30;99.90;;;;;;5004349;28;20046;-82
2021/09/20 02:32:08;;;;;;;5.68;5.10;;;9.20;99.90;;;;;;5007109;28;20070;-82
2021/09/20 02:34:35;;;;;;;6.15;5.10;;;9.20;99.90;;;;;;5022626;28;20063;-83
2021/09/20 02:37:02;;;;;;;5.40;4.63;;;9.20;99.90;;;;;;5006592;28;20050;-84
2021/09/20 02:39:30;;;;;;;4.60;4.20;;;9.20;99.90;;;;;;5018667;28;20056;-83
2021/09/20 02:41:57;;;;;;;5.32;4.50;;;9.10;99.90;;;;;;5025447;28;20506;-83
2021/09/20 02:44:24;;;;;;;8.10;4.43;;;9.20;99.90;;;;;;5005294;28;20061;-82
2021/09/20 02:46:51;;;;;;;5.47;4.65;;;9.10;99.90;;;;;;5003817;28;20161;-83
2021/09/20 02:49:18;;;;;;;7.25;5.80;;;9.10;99.90;;;;;;5006189;28;20054;-82
2021/09/20 02:51:44;;;;;;;7.05;5.95;;;9.10;99.90;;;;;;5004924;28;20103;-82
2021/09/20 02:54:11;;;;;;;7.45;5.75;;;9.10;99.90;;;;;;5007498;28;20127;-83
2021/09/20 02:56:42;;;;;;;5.53;4.93;;;9.10;99.90;;;;;;5001718;28;20046;-83
2021/09/20 02:59:09;;;;;;;5.88;5.35;;;9.10;99.90;;;;;;5023084;28;20061;-83
2021/09/20 03:01:36;;;;;;;8.02;4.65;;;9.10;99.90;;;;;;5016257;28;20065;-83
2021/09/20 03:04:03;;;;;;;5.50;4.43;;;9.10;99.90;;;;;;5010314;28;20064;-84
2021/09/20 03:06:30;;;;;;;5.47;3.80;;;9.10;99.90;;;;;;5005741;28;20192;-83
2021/09/20 03:08:57;;;;;;;7.50;4.40;;;9.10;99.90;;;;;;5005934;28;20046;-84
2021/09/20 03:11:24;;;;;;;13.68;6.93;;;9.10;99.90;;;;;;5007952;28;20057;-83
2021/09/20 03:13:51;;;;;;;6.15;5.25;;;9.10;99.90;;;;;;5006375;28;20168;-83
2021/09/20 03:16:18;;;;;;;6.40;5.57;;;9.10;99.90;;;;;;5023435;28;20046;-83
2021/09/20 03:18:45;;;;;;;7.43;4.65;;;9.10;99.90;;;;;;5006121;28;20050;-82
2021/09/20 03:21:12;;;;;;;7.35;5.45;;;9.10;99.90;;;;;;5024592;28;20057;-82
2021/09/20 03:23:39;;;;;;;5.82;4.93;;;9.10;99.90;;;;;;4987007;28;20050;-83
2021/09/20 03:26:10;;;;;;;4.40;4.00;;;9.10;99.90;;;;;;5009336;28;20090;-82
2021/09/20 03:28:37;;;;;;;7.65;5.13;;;9.10;99.90;;;;;;5004244;28;20046;-83
2021/09/20 03:31:04;;;;;;;6.97;4.65;;;9.10;99.90;;;;;;5005901;28;20141;-83
2021/09/20 03:33:31;;;;;;;6.22;4.20;;;9.10;99.90;;;;;;5002561;28;20045;-84
2021/09/20 03:35:58;;;;;;;6.30;5.70;;;9.10;99.90;;;;;;5007659;28;20052;-83
2021/09/20 03:38:25;;;;;;;5.60;4.97;;;9.10;99.90;;;;;;5005989;28;20061;-83
2021/09/20 03:40:52;;;;;;;6.82;5.70;;;9.10;99.90;;;;;;5005568;28;20045;-83
2021/09/20 03:43:19;;;;;;;7.93;4.43;;;9.10;99.90;;;;;;5007607;28;20052;-83
2021/09/20 03:45:46;;;;;;;9.77;5.22;;;9.00;99.90;;;;;;5004346;28;20073;-83
2021/09/20 03:48:13;;;;;;;8.68;5.22;;;9.10;99.90;;;;;;5006648;28;20056;-83
2021/09/20 03:50:40;;;;;;;5.78;4.85;;;9.10;99.90;;;;;;5003879;28;20115;-83
2021/09/20 03:53:07;;;;;;;5.88;5.35;;;9.10;99.90;;;;;;5004691;28;20057;-85
2021/09/20 03:55:34;;;;;;;7.30;5.15;;;9.00;99.90;;;;;;5002029;28;20049;-83
2021/09/20 03:58:01;;;;;;;5.57;4.57;;;9.10;99.90;;;;;;5007516;28;20112;-83
2021/09/20 04:00:28;;;;;;;6.40;5.32;;;9.00;99.90;;;;;;5006621;28;20534;-82
2021/09/20 04:02:55;;;;;;;5.47;4.97;;;9.00;99.90;;;;;;5005238;28;20105;-83
2021/09/20 04:05:22;;;;;;;9.90;5.88;;;9.00;99.90;;;;;;5003414;28;20053;-83
2021/09/20 04:07:49;;;;;;;5.30;4.05;;;9.00;99.90;;;;;;5003975;28;20378;-83
2021/09/20 04:10:16;;;;;;;7.18;5.43;;;9.00;99.90;;;;;;5019537;28;21763;-84
2021/09/20 04:12:44;;;;;;;5.95;4.95;;;9.00;99.90;;;;;;5003817;28;20065;-83
2021/09/20 04:15:12;;;;;;;4.82;4.32;;;9.00;99.90;;;;;;5008468;28;20052;-82
2021/09/20 04:17:39;;;;;;;9.60;6.47;;;9.00;99.90;;;;;;5002605;28;20038;-82
2021/09/20 04:20:07;;;;;;;8.55;5.22;;;9.00;99.90;;;;;;5019194;28;20041;-83
2021/09/20 04:22:34;;;;;;;9.00;4.95;;;9.00;99.90;;;;;;5006868;28;20108;-83
2021/09/20 04:25:01;;;;;;;7.13;5.45;;;9.00;99.90;;;;;;5005772;28;20042;-83
2021/09/20 04:27:28;;;;;;;8.00;5.40;;;9.00;99.90;;;;;;5001674;28;20038;-83
2021/09/20 04:29:55;;;;;;;7.50;5.78;;;8.90;99.90;;;;;;5006362;28;20422;-84
2021/09/20 04:32:25;;;;;;;8.48;5.30;;;9.00;99.90;;;;;;5003519;28;20049;-83
2021/09/20 04:34:52;;;;;;;10.35;5.20;;;9.00;99.90;;;;;;5004585;28;20108;-85
2021/09/20 04:37:19;;;;;;;6.60;5.72;;;9.00;99.90;;;;;;5005462;28;20128;-84
2021/09/20 04:39:46;;;;;;;6.38;5.60;;;8.90;99.90;;;;;;5005545;28;20058;-83
2021/09/20 04:42:13;;;;;;;6.72;5.72;;;8.90;99.90;;;;;;5005974;28;20104;-83
2021/09/20 04:44:41;;;;;;;7.07;4.80;;;8.90;99.90;;;;;;5004857;28;20919;-84
2021/09/20 04:47:08;;;;;;;6.38;5.25;;;8.90;99.90;;;;;;5005963;28;20034;-83
2021/09/20 04:49:35;;;;;;;10.55;7.22;;;8.90;99.90;;;;;;5015026;28;20149;-83
2021/09/20 04:52:02;;;;;;;6.97;4.47;;;8.90;99.90;;;;;;5020325;28;20142;-83
2021/09/20 04:54:29;;;;;;;6.60;5.00;;;8.90;99.90;;;;;;5018366;28;20033;-83
2021/09/20 04:56:56;;;;;;;6.85;5.35;;;8.90;99.90;;;;;;5005378;28;20073;-83
2021/09/20 04:59:23;;;;;;;6.00;5.07;;;8.90;99.90;;;;;;5005072;28;20080;-83
2021/09/20 05:01:50;;;;;;;5.05;4.55;;;9.00;99.90;;;;;;4987366;28;20050;-84
2021/09/20 05:04:17;;;;;;;5.75;5.10;;;9.00;99.90;;;;;;4986945;28;20050;-83
2021/09/20 05:06:44;;;;;;;5.63;5.05;;;9.00;99.90;;;;;;5005220;28;20046;-82
2021/09/20 05:09:11;;;;;;;7.10;5.18;;;9.00;99.90;;;;;;5006945;28;20548;-83
2021/09/20 05:11:39;;;;;;;6.22;5.20;;;9.10;99.90;;;;;;5008545;28;20076;-83
2021/09/20 05:14:06;;;;;;;6.60;5.65;;;9.10;99.90;;;;;;5022152;28;20065;-83
2021/09/20 05:16:33;;;;;;;6.80;5.25;;;9.10;99.90;;;;;;5004981;28;20636;-83
2021/09/20 05:19:00;;;;;;;6.05;5.32;;;9.10;99.90;;;;;;5008014;28;20064;-82
2021/09/20 05:21:27;;;;;;;6.18;5.47;;;9.10;99.90;;;;;;5011099;28;20129;-82
2021/09/20 05:23:54;;;;;;;10.23;6.53;;;9.20;99.90;;;;;;5001073;28;20053;-82
2021/09/20 05:26:21;;;;;;;7.10;5.10;;;9.20;99.90;;;;;;5006558;28;20097;-82
2021/09/20 05:28:48;;;;;;;6.22;5.45;;;9.20;99.90;;;;;;5008282;28;20046;-83
2021/09/20 05:31:15;;;;;;;6.10;5.35;;;9.30;99.90;;;;;;5009226;28;20091;-83
2021/09/20 05:33:42;;;;;;;8.38;5.00;;;9.30;99.90;;;;;;5018881;28;20060;-84
2021/09/20 05:36:09;;;;;;;7.50;4.88;;;9.30;99.90;;;;;;5009702;28;20056;-83
2021/09/20 05:38:36;;;;;;;5.68;4.78;;;9.30;99.90;;;;;;5008882;28;20045;-83
2021/09/20 05:41:03;;;;;;;9.95;6.95;;;9.30;99.90;;;;;;5008120;28;20042;-83
2021/09/20 05:43:30;;;;;;;8.30;5.43;;;9.30;99.90;;;;;;5007806;28;20046;-84
2021/09/20 05:45:57;;;;;;;9.77;6.97;;;9.30;99.90;;;;;;5011293;28;20052;-83
2021/09/20 05:48:24;;;;;;;7.10;6.40;;;9.30;99.90;;;;;;5021782;28;20079;-83
2021/09/20 05:50:51;;;;;;;6.80;4.65;;;9.30;99.90;;;;;;4989793;28;20076;-84
2021/09/20 05:53:18;;;;;;;7.03;4.95;;;9.40;99.90;;;;;;5026091;28;20053;-84
2021/09/20 05:55:45;;;;;;;6.13;5.47;;;9.40;99.90;;;;;;5008537;28;20052;-85
2021/09/20 05:58:12;;;;;;;6.10;5.50;;;9.40;99.90;;;;;;5010663;28;20105;-85
2021/09/20 06:00:39;;;;;;;7.80;6.65;;;9.40;99.90;;;;;;5013033;28;20053;-86
2021/09/20 06:03:06;;;;;;;8.25;6.32;;;9.50;99.90;;;;;;4994158;28;20882;-85
2021/09/20 06:05:38;;;;;;;6.68;5.25;;;9.50;99.90;;;;;;5009239;28;20145;-85
2021/09/20 06:08:06;;;;;;;7.93;6.22;;;9.50;99.90;;;;;;5012637;28;20144;-84
2021/09/20 06:10:34;;;;;;;6.43;5.40;;;9.50;99.90;;;;;;5012774;28;20504;-85
2021/09/20 06:13:04;;;;;;;8.60;7.15;;;9.50;99.90;;;;;;5009943;28;20629;-84
2021/09/20 06:15:31;;;;;;;6.90;5.70;;;9.50;99.90;;;;;;5009433;28;20080;-85
2021/09/20 06:17:58;;;;;;;7.35;6.15;;;9.60;99.90;;;;;;5009093;28;20058;-86
2021/09/20 06:20:26;;;;;;;9.65;6.30;;;9.60;99.90;;;;;;5010771;28;20049;-86
2021/09/20 06:22:53;;;;;;;8.80;5.20;;;9.60;99.90;;;;;;5011530;28;20409;-85
2021/09/20 06:25:20;;;;;;;8.63;6.18;;;9.60;99.90;;;;;;5008894;28;20195;-85
2021/09/20 06:27:47;;;;;;;6.70;6.00;;;9.60;99.90;;;;;;4989403;28;20545;-86
2021/09/20 06:30:14;;;;;;;6.10;5.50;;;9.70;99.90;;;;;;4988822;28;20554;-85
2021/09/20 06:32:43;;;;;;;6.60;5.93;;;9.70;99.90;;;;;;5010202;28;20048;-85
2021/09/20 06:35:11;;;;;;;6.43;5.32;;;9.70;99.90;;;;;;4987733;28;20050;-85
2021/09/20 06:37:38;;;;;;;11.98;5.47;;;9.80;99.90;;;;;;5022952;28;20081;-84
2021/09/20 06:40:07;;;;;;;6.43;5.80;;;9.80;99.90;;;;;;5005916;28;20046;-86
2021/09/20 06:42:34;;;;;;;7.35;6.10;;;9.80;99.90;;;;;;4995348;28;20049;-85
2021/09/20 06:45:02;;;;;;;7.70;6.50;;;9.80;99.90;;;;;;5007443;28;20494;-85
2021/09/20 06:47:29;;;;;;;9.40;6.47;;;9.80;99.90;;;;;;4998735;28;20049;-86
2021/09/20 06:49:56;;;;;;;8.85;5.80;;;9.80;99.90;;;;;;5002166;28;20069;-85
2021/09/20 06:52:23;;;;;;;6.93;5.85;;;9.90;99.90;;;;;;4996282;28;20105;-84
2021/09/20 06:54:51;;;;;;;7.22;6.47;;;9.90;99.90;;;;;;4982859;28;20045;-85
2021/09/20 06:57:18;;;;;;;9.00;6.25;;;9.90;99.90;;;;;;4978639;28;20053;-84
2021/09/20 06:59:45;;;;;;;7.15;6.50;;;10.00;99.90;;;;;;4962407;28;20058;-85
2021/09/20 07:02:12;;;;;;;6.80;6.07;;;10.00;99.90;;;;;;4963517;28;20637;-84
2021/09/20 07:04:39;;;;;;;8.68;5.75;;;10.10;99.90;;;;;;4978552;28;20046;-85
2021/09/20 07:07:07;;;;;;;6.30;5.72;;;10.10;99.90;;;;;;4972964;28;21124;-86
2021/09/20 07:09:34;;;;;;;6.88;6.18;;;10.10;99.90;;;;;;4946134;28;20441;-85
2021/09/20 07:12:01;;;;;;;11.52;6.68;;;10.00;99.90;;;;;;4942575;28;20054;-84
2021/09/20 07:14:28;;;;;;;7.10;5.28;;;10.10;99.90;;;;;;4944622;28;20137;-82
2021/09/20 07:16:55;;;;;;;6.57;5.60;;;10.10;99.90;;;;;;4940593;28;20061;-81
2021/09/20 07:19:23;;;;;;;8.45;7.65;;;10.10;99.90;;;;;;4993746;28;20060;-81
2021/09/20 07:21:50;;;;;;;7.60;6.57;;;10.10;99.90;;;;;;4967515;28;20147;-80
2021/09/20 07:24:17;;;;;;;8.68;5.47;;;10.10;99.90;;;;;;4958491;28;20376;-80
2021/09/20 07:26:44;;;;;;;9.55;7.28;;;10.20;99.90;;;;;;4951650;28;20091;-82
2021/09/20 07:29:11;;;;;;;7.40;6.40;;;10.20;99.90;;;;;;4953199;28;20065;-81
2021/09/20 07:31:38;;;;;;;6.53;5.85;;;10.20;99.90;;;;;;4956153;28;20546;-81
2021/09/20 07:34:05;;;;;;;7.00;6.30;;;10.30;99.90;;;;;;4971821;28;20072;-82
2021/09/20 07:36:32;;;;;;;9.07;6.25;;;10.30;99.90;;;;;;4957126;28;20053;-82
2021/09/20 07:38:59;;;;;;;8.60;5.38;;;10.30;99.90;;;;;;4953250;28;20120;-82
2021/09/20 07:41:26;;;;;;;7.05;6.25;;;10.40;99.90;;;;;;4945628;28;20053;-81
2021/09/20 07:43:53;;;;;;;7.97;7.18;;;10.40;99.90;;;;;;4944163;28;20046;-82
2021/09/20 07:46:22;;;;;;;7.72;6.35;;;10.40;99.90;;;;;;4956895;28;20074;-84
2021/09/20 07:48:51;;;;;;;8.35;7.47;;;10.40;99.90;;;;;;4938304;28;20050;-85
2021/09/20 07:51:20;;;;;;;9.32;7.78;;;10.50;99.90;;;;;;4939192;28;20538;-83
2021/09/20 07:53:47;;;;;;;9.30;6.55;;;10.50;99.90;;;;;;4942872;28;20046;-83
2021/09/20 07:56:14;;;;;;;7.18;6.40;;;10.50;99.90;;;;;;4942215;28;20050;-82
2021/09/20 07:58:41;;;;;;;8.55;7.70;;;10.50;99.90;;;;;;4949081;28;20066;-83
2021/09/20 08:01:08;;;;;;;7.90;7.10;;;10.60;99.90;;;;;;4967633;28;20104;-87
2021/09/20 08:03:35;;;;;;;9.05;8.02;;;10.60;99.90;;;;;;4964727;28;20049;-85
2021/09/20 08:06:03;;;;;;;11.13;6.82;;;10.60;99.90;;;;;;4951076;28;20061;-84
2021/09/20 08:08:30;;;;;;;10.00;6.75;;;10.50;99.90;;;;;;4964490;28;20049;-85
2021/09/20 08:10:57;;;;;;;7.38;6.18;;;10.50;99.90;;;;;;4946920;28;20049;-84
2021/09/20 08:13:24;;;;;;;7.72;6.28;;;10.50;99.90;;;;;;4964729;28;20061;-85
2021/09/20 08:15:51;;;;;;;7.20;5.53;;;10.40;99.90;;;;;;4953481;28;20042;-82
2021/09/20 08:18:18;;;;;;;10.18;5.97;;;10.40;99.90;;;;;;4996547;28;20050;-84
2021/09/20 08:20:46;;;;;;;8.30;6.18;;;10.30;99.90;;;;;;5006176;28;20041;-82
2021/09/20 08:23:14;;;;;;;7.32;6.50;;;10.30;99.90;;;;;;5005940;28;20054;-83
2021/09/20 08:25:41;;;;;;;7.28;5.97;;;10.30;99.90;;;;;;5007543;28;20038;-83
2021/09/20 08:28:08;;;;;;;13.20;6.97;;;10.40;99.90;;;;;;5009969;28;20049;-83
2021/09/20 08:30:36;;;;;;;6.40;5.32;;;10.30;99.90;;;;;;5020653;28;20033;-84
2021/09/20 08:33:03;;;;;;;12.10;7.05;;;10.40;99.90;;;;;;5018725;28;20497;-84
2021/09/20 08:35:30;;;;;;;17.15;6.55;;;10.30;99.90;;;;;;5006054;28;20038;-83
2021/09/20 08:37:58;;;;;;;7.20;6.15;;;10.40;99.90;;;;;;5008795;28;20046;-83
2021/09/20 08:40:27;;;;;;;7.65;6.18;;;10.40;99.90;;;;;;5005617;28;20038;-83
2021/09/20 08:42:55;;;;;;;10.25;5.72;;;10.50;99.90;;;;;;5002447;28;20046;-84
2021/09/20 08:45:24;;;;;;;6.50;5.35;;;10.50;99.90;;;;;;5004555;28;20525;-83
2021/09/20 08:47:54;;;;;;;7.00;6.30;;;10.60;99.90;;;;;;5004525;28;20104;-84
2021/09/20 08:50:33;;;;;;;6.97;5.88;;;10.70;99.90;;;;;;5005373;28;20088;-83
2021/09/20 08:53:02;;;;;;;6.10;5.32;;;10.70;99.90;;;;;;5018063;28;20137;-84
2021/09/20 08:55:32;;;;;;;5.80;4.68;;;10.80;99.90;;;;;;5020118;28;20046;-83
2021/09/20 08:58:00;;;;;;;6.97;4.93;;;10.80;99.90;;;;;;5008022;28;20200;-83
2021/09/20 09:00:27;;;;;;;5.60;5.05;;;10.80;99.90;;;;;;5007078;28;20085;-85
2021/09/20 09:02:54;;;;;;;5.70;5.07;;;10.90;99.90;;;;;;5019474;28;20568;-83
2021/09/20 09:05:27;;;;;;;5.20;4.70;;;11.00;99.90;;;;;;5005309;28;20205;-84
2021/09/20 09:08:01;;;;;;;5.85;4.60;;;11.00;99.90;;;;;;5006350;28;20054;-85
2021/09/20 09:10:31;;;;;;;3.63;3.15;;;11.10;99.90;;;;;;5003449;28;20049;-85
2021/09/20 09:13:00;;;;;;;6.60;3.47;;;11.10;99.90;;;;;;5017476;28;20049;-83
2021/09/20 09:15:27;;;;;;;6.03;3.35;;;11.20;99.90;;;;;;5004440;28;20046;-83
2021/09/20 09:17:56;;;;;;;4.15;2.80;;;11.30;99.90;;;;;;5002227;28;20465;-84
2021/09/20 09:20:32;;;;;;;5.57;3.30;;;11.30;99.90;;;;;;5004494;28;20046;-83
2021/09/20 09:23:02;;;;;;;4.88;3.05;;;11.40;99.90;;;;;;5000788;28;20053;-83
2021/09/20 09:25:41;;;;;;;6.40;4.32;;;11.40;99.90;;;;;;5003466;28;20051;-83
2021/09/20 09:28:21;;;;;;;5.00;3.42;;;11.50;99.90;;;;;;5005277;28;20690;-82
2021/09/20 09:30:55;;;;;;;4.75;3.00;;;11.50;99.90;;;;;;5007669;28;20052;-83
2021/09/20 09:33:44;;;;;;;6.43;3.90;;;11.60;99.90;;;;;;5005495;28;20103;-83
2021/09/20 09:36:14;;;;;;;5.30;4.25;;;11.80;99.90;;;;;;5006804;28;20073;-83
2021/09/20 09:38:58;;;;;;;5.00;3.60;;;11.80;99.90;;;;;;5006693;28;20499;-83
2021/09/20 09:41:33;;;;;;;3.58;3.15;;;11.70;99.90;;;;;;5004114;28;20065;-84
2021/09/20 09:44:05;;;;;;;5.53;3.30;;;11.70;99.90;;;;;;5000105;28;20117;-83
2021/09/20 09:46:37;;;;;;;2.90;2.63;;;11.70;99.90;;;;;;5003086;28;20101;-84
2021/09/20 09:49:16;;;;;;;3.95;3.08;;;11.80;99.90;;;;;;5019457;28;20054;-82
2021/09/20 09:51:52;;;;;;;4.22;2.75;;;12.00;99.90;;;;;;5019057;28;20045;-83
2021/09/20 09:54:26;;;;;;;4.05;2.28;;;12.20;99.90;;;;;;5019001;28;20581;-82
2021/09/20 09:57:13;;;;;;;4.78;2.65;;;12.30;99.90;;;;;;5003588;28;20049;-82
2021/09/20 09:59:41;;;;;;;3.97;2.42;;;12.30;99.90;;;;;;5001721;28;20498;-83
2021/09/20 10:02:26;;;;;;;7.10;2.58;;;12.40;99.90;;;;;;5002218;28;20092;-83
2021/09/20 10:04:56;;;;;;;3.75;2.55;;;12.50;99.90;;;;;;5003832;28;20054;-82
2021/09/20 10:07:27;;;;;;;7.15;3.15;;;12.60;99.90;;;;;;5005081;28;20111;-84
2021/09/20 10:09:55;;;;;;;;;;;12.70;99.90;;;;;;5000810;28;20058;-83
2021/09/20 10:12:23;;;;;;;2.28;1.67;;;12.60;99.90;;;;;;5004084;28;19983;-84
2021/09/20 10:14:52;;;;;;;2.78;1.92;;;12.70;99.90;;;;;;5006746;28;20148;-83
2021/09/20 10:17:21;;;;;;;4.63;2.47;;;12.80;99.90;;;;;;5021580;28;20201;-84
2021/09/20 10:19:50;;;;;;;;;;;12.90;99.90;;;;;;5010847;28;20053;-83
2021/09/20 10:22:18;;;;;;;3.58;2.28;;;13.00;99.90;;;;;;5007520;28;19968;-82
2021/09/20 10:24:49;;;;;;;3.45;2.30;;;13.20;99.90;;;;;;5009567;28;20100;-84
2021/09/20 10:27:18;;;;;;;2.67;2.17;;;13.40;99.90;;;;;;5008643;28;20053;-83
2021/09/20 10:29:52;;;;;;;4.45;2.65;;;13.40;99.90;;;;;;5000446;28;20093;-83
2021/09/20 10:32:25;;;;;;;5.30;2.75;;;13.40;99.90;;;;;;5005840;28;20149;-83
2021/09/20 10:34:52;;;;;;;2.25;1.80;;;13.40;99.90;;;;;;5006050;28;20042;-84
2021/09/20 10:37:24;;;;;;;2.85;1.80;;;13.20;99.90;;;;;;5007557;28;20149;-84
2021/09/20 10:40:06;;;;;;;3.10;1.38;;;12.90;99.90;;;;;;5008999;28;20046;-83
2021/09/20 10:42:33;;;;;;;3.40;2.00;;;12.80;99.90;;;;;;5008886;28;20076;-85
2021/09/20 10:45:07;;;;;;;3.95;1.88;;;12.70;99.90;;;;;;5006346;28;20045;-84
2021/09/20 10:47:45;;;;;;;2.00;1.80;;;12.60;99.90;;;;;;5005293;28;20123;-83
2021/09/20 10:50:14;;;;;;;4.10;1.80;;;12.60;99.90;;;;;;5000699;28;20212;-85
2021/09/20 10:53:15;;;;;;;4.20;2.03;;;12.80;99.90;;;;;;5027351;28;20077;-83
2021/09/20 10:56:04;;;;;;;1.58;1.48;;;13.00;99.90;;;;;;5004592;28;20145;-84
2021/09/20 10:58:52;;;;;;;3.25;2.15;;;13.20;99.90;;;;;;5007516;28;20046;-85
2021/09/20 11:01:24;;;;;;;2.47;1.75;;;13.20;99.90;;;;;;4996826;28;20042;-83
2021/09/20 11:03:55;;;;;;;8.35;1.92;;;13.00;99.90;;;;;;5003880;28;20065;-85
2021/09/20 11:06:33;;;;;;;3.22;1.90;;;12.90;99.90;;;;;;5005021;28;20125;-83
2021/09/20 11:09:03;;;;;;;3.58;1.63;;;12.80;99.90;;;;;;5016943;28;20121;-84
2021/09/20 11:11:40;;;;;;;2.38;2.13;;;12.80;99.90;;;;;;5007836;28;20050;-85
2021/09/20 11:14:36;;;;;;;4.70;2.13;;;12.90;99.90;;;;;;5007150;28;20045;-83
2021/09/20 11:17:16;;;;;;;2.30;1.63;;;12.80;99.90;;;;;;4994543;28;20052;-83
2021/09/20 11:19:45;;;;;;;4.57;2.35;;;12.70;99.90;;;;;;5003612;28;20046;-84
2021/09/20 11:22:14;;;;;;;3.33;2.00;;;12.70;99.90;;;;;;5006626;28;20080;-83
2021/09/20 11:24:47;;;;;;;3.72;2.13;;;12.60;99.90;;;;;;5019356;28;20042;-83
2021/09/20 11:27:45;;;;;;;2.80;1.60;;;12.60;99.90;;;;;;5010479;28;20057;-83
2021/09/20 11:30:23;;;;;;;2.10;1.90;;;12.60;99.90;;;;;;5020843;28;20129;-84
2021/09/20 11:32:57;;;;;;;3.03;1.35;;;12.70;99.90;;;;;;5018572;28;20069;-83
2021/09/20 11:35:26;;;;;;;3.88;1.83;;;12.90;99.90;;;;;;4988028;28;20131;-84
2021/09/20 11:37:55;;;;;;;4.13;2.83;;;12.80;99.90;;;;;;4977387;28;20056;-84
2021/09/20 11:40:29;;;;;;;5.45;2.83;;;12.70;99.90;;;;;;4969497;28;20084;-83
2021/09/20 11:43:06;;;;;;;4.18;2.95;;;12.60;99.90;;;;;;4949760;28;20475;-85
2021/09/20 11:45:36;;;;;;;3.58;1.30;;;12.50;99.90;;;;;;4959053;28;20054;-84
2021/09/20 11:48:05;;;;;;;3.33;2.05;;;12.40;99.90;;;;;;4951761;28;20272;-85
2021/09/20 11:50:34;;;;;;;1.95;1.75;;;12.30;99.90;;;;;;4949101;28;20108;-85
2021/09/20 11:53:06;;;;;;;3.53;2.30;;;12.20;99.90;;;;;;4947876;28;20144;-84
2021/09/20 11:55:36;;;;;;;2.70;1.90;;;12.10;99.90;;;;;;4950328;28;20057;-84
2021/09/20 11:58:05;;;;;;;2.80;2.22;;;12.20;99.90;;;;;;4969094;28;20097;-84
2021/09/20 12:00:35;;;;;;;2.28;2.08;;;12.30;99.90;;;;;;4947591;28;20053;-86
2021/09/20 12:03:05;;;;;;;6.07;2.00;;;12.50;99.90;;;;;;4964668;28;20057;-86
2021/09/20 12:05:38;;;;;;;2.70;2.25;;;12.70;99.90;;;;;;4945514;28;20053;-85
2021/09/20 12:08:22;;;;;;;3.25;2.58;;;12.90;99.90;;;;;;4940659;28;20065;-84
2021/09/20 12:10:54;;;;;;;4.57;2.33;;;13.10;99.90;;;;;;4939421;28;20463;-83
2021/09/20 12:13:30;;;;;;;3.42;2.00;;;13.30;99.90;;;;;;4942052;28;20858;-85
2021/09/20 12:16:03;;;;;;;3.03;2.00;;;13.50;99.90;;;;;;4939752;28;20042;-85
2021/09/20 12:18:30;;;;;;;2.60;2.08;;;13.60;99.90;;;;;;4954007;28;20422;-85
2021/09/20 12:21:06;;;;;;;3.45;1.95;;;13.80;99.90;;;;;;4952666;28;20122;-85
2021/09/20 12:23:55;;;;;;;3.15;2.28;;;13.70;99.90;;;;;;4953414;28;20041;-83
2021/09/20 12:26:24;;;;;;;1.92;1.20;;;13.50;99.90;;;;;;4934136;28;20053;-86
2021/09/20 12:28:57;;;;;;;4.43;2.17;;;13.50;99.90;;;;;;4932287;28;20464;-83
2021/09/20 12:31:32;;;;;;;5.38;2.60;;;13.50;99.90;;;;;;4965809;28;20042;-85
2021/09/20 12:34:08;;;;;;;2.45;1.30;;;13.40;99.90;;;;;;4953031;28;20057;-84
2021/09/20 12:36:38;;;;;;;1.83;1.52;;;13.30;99.90;;;;;;4950997;28;20057;-83
2021/09/20 12:39:12;;;;;;;3.85;2.03;;;13.40;99.90;;;;;;5001814;28;20144;-85
2021/09/20 12:41:45;;;;;;;2.10;1.27;;;13.40;99.90;;;;;;5002676;28;20049;-85
2021/09/20 12:44:29;;;;;;;2.40;1.92;;;13.50;99.90;;;;;;5003184;28;20050;-84
2021/09/20 12:47:13;;;;;;;2.40;1.73;;;13.50;99.90;;;;;;5001057;28;20049;-83
2021/09/20 12:49:42;;;;;;;3.40;1.48;;;13.70;99.90;;;;;;5003292;28;20746;-85
2021/09/20 12:52:30;;;;;;;2.20;1.58;;;13.60;99.90;;;;;;5017895;28;20092;-85
2021/09/20 12:55:15;;;;;;;3.55;1.65;;;13.60;99.90;;;;;;4997017;28;20054;-85
2021/09/20 12:57:53;;;;;;;2.60;1.75;;;13.50;99.90;;;;;;5021258;28;20054;-83
2021/09/20 13:00:33;;;;;;;1.70;1.60;;;13.50;99.90;;;;;;5003363;28;20061;-85
2021/09/20 13:03:12;;;;;;;3.78;1.45;;;13.50;99.90;;;;;;5002793;28;20073;-84
2021/09/20 13:05:48;;;;;;;3.90;1.73;;;13.40;99.90;;;;;;5005166;28;20109;-86
2021/09/20 13:08:16;;;;;;;4.30;1.63;;;13.40;99.90;;;;;;5003885;28;20467;-84